ETHF/FRZ METAR and TAF weather

Enter ICAO airport designator
Station Type Date Time Source
ETHF METAR 2022/12/04 04:20 UTC NOAA

ETHF 040420Z 07006KT 9999 OVC009 00/M02 Q1017 GRN


Station Type Date Time Source
ETHF Decoded METAR 2022/12/04 04:20 UTC NOAA

Fritzlar, Germany (ETHF) 51-07N 009-17E 181M
Dec 03, 2022 - 11:20 PM EST / 2022.12.04 0420 UTC
Wind: from the ENE (070 degrees) at 7 MPH (6 KT):0
Visibility: greater than 7 mile(s):0
Sky conditions: overcast
Temperature: 32 F (0 C)
Windchill: 24 F (-4 C):1
Dew Point: 28 F (-2 C)
Relative Humidity: 86%
Pressure (altimeter): 30.03 in. Hg (1017 hPa)
ob: ETHF 040420Z 07006KT 9999 OVC009 00/M02 Q1017 GRN
cycle: 4

Station Type Date Time Source
ETHF TAF 2022/02/17 06:31 UTC NOAA

TAF ETHF 170520Z 1706/1724 27020G30KT 9999 NSW FEW025 BKN060
TEMPO 1706/1712 28025G50KT 3000 SHRA SCT020CB BKN030
TEMPO 1712/1715 28025G40KT 6000 -SHRA SCT020TCU BKN030

Example: see airport list